Time;durP1;ratioP1;P1;durP2;ratioP2;P2;SDS_P1;SDS_P2;PMS_P1;PMS_P2;Temp;Humidity;BMP_temperature;BMP_pressure;BME280_temperature;BME280_humidity;BME280_pressure;Samples;Min_cycle;Max_cycle;Signal;HPM_P1;HPM_P2
2021/04/20 00:01:43;;;;;;;3.10;1.63;;;;;;;;;;5088670;28;20494;-74
2021/04/20 00:04:09;;;;;;;3.27;1.67;;;;;;;;;;5093262;28;20039;-74
2021/04/20 00:06:34;;;;;;;3.40;1.30;;;;;;;;;;5112440;28;20044;-75
2021/04/20 00:09:00;;;;;;;3.10;1.30;;;;;;;;;;5078326;28;20172;-74
2021/04/20 00:11:25;;;;;;;2.63;1.40;;;;;;;;;;5075309;28;20044;-74
2021/04/20 00:13:50;;;;;;;2.97;1.60;;;;;;;;;;5083164;28;20035;-74
2021/04/20 00:16:16;;;;;;;3.03;1.27;;;;;;;;;;5113332;28;20067;-74
2021/04/20 00:18:41;;;;;;;2.80;1.30;;;;;;;;;;5061651;28;20067;-74
2021/04/20 00:21:06;;;;;;;3.50;1.60;;;;;;;;;;5095955;28;20059;-74
2021/04/20 00:23:32;;;;;;;4.10;1.40;;;;;;;;;;5108030;28;20536;-74
2021/04/20 00:25:57;;;;;;;2.77;1.30;;;;;;;;;;5075146;28;20631;-74
2021/04/20 00:28:23;;;;;;;3.27;1.50;;;;;;;;;;5102368;28;20042;-74
2021/04/20 00:30:49;;;;;;;4.97;1.85;;;;;;;;;;5061943;28;20035;-74
2021/04/20 00:33:14;;;;;;;2.77;1.30;;;;;;;;;;5094903;28;20030;-74
2021/04/20 00:35:39;;;;;;;3.67;1.43;;;;;;;;;;5095307;28;20134;-75
2021/04/20 00:38:05;;;;;;;2.27;1.37;;;;;;;;;;5094873;28;20066;-74
2021/04/20 00:40:30;;;;;;;3.30;1.60;;;;;;;;;;5078467;28;20175;-74
2021/04/20 00:42:56;;;;;;;3.03;1.57;;;;;;;;;;5061829;28;20067;-74
2021/04/20 00:45:24;;;;;;;3.58;1.60;;;;;;;;;;5076468;28;20032;-74
2021/04/20 00:47:50;;;;;;;2.88;1.40;;;;;;;;;;5095211;28;20176;-74
2021/04/20 00:50:16;;;;;;;2.60;1.37;;;;;;;;;;5084001;28;20031;-74
2021/04/20 00:52:42;;;;;;;2.95;1.35;;;;;;;;;;5095311;28;20059;-74
2021/04/20 00:55:07;;;;;;;2.47;1.50;;;;;;;;;;5095144;28;20067;-74
2021/04/20 00:57:33;;;;;;;3.17;1.50;;;;;;;;;;5091743;28;20056;-74
2021/04/20 00:59:58;;;;;;;2.77;1.30;;;;;;;;;;5074910;28;20470;-74
2021/04/20 01:02:24;;;;;;;3.67;2.27;;;;;;;;;;5091977;28;20039;-74
2021/04/20 01:04:49;;;;;;;4.93;1.70;;;;;;;;;;5107226;28;20520;-74
2021/04/20 01:07:15;;;;;;;3.70;1.60;;;;;;;;;;5095117;28;20308;-74
2021/04/20 01:09:40;;;;;;;2.80;1.40;;;;;;;;;;5105822;28;20089;-74
2021/04/20 01:12:06;;;;;;;2.43;1.40;;;;;;;;;;5074831;28;20494;-74
2021/04/20 01:14:31;;;;;;;2.30;1.30;;;;;;;;;;5104416;28;20054;-74
2021/04/20 01:16:57;;;;;;;2.50;1.30;;;;;;;;;;5096983;28;20110;-74
2021/04/20 01:19:22;;;;;;;2.83;1.30;;;;;;;;;;5103838;28;20070;-74
2021/04/20 01:21:47;;;;;;;2.90;1.53;;;;;;;;;;5111627;28;20059;-74
2021/04/20 01:24:13;;;;;;;3.00;1.40;;;;;;;;;;5085929;28;20031;-74
2021/04/20 01:26:42;;;;;;;3.00;1.47;;;;;;;;;;5093298;28;20042;-74
2021/04/20 01:29:08;;;;;;;2.33;1.40;;;;;;;;;;5110164;28;20493;-74
2021/04/20 01:31:34;;;;;;;2.87;1.30;;;;;;;;;;5116046;28;20038;-74
2021/04/20 01:34:00;;;;;;;2.90;1.30;;;;;;;;;;5089203;28;20036;-74
2021/04/20 01:36:26;;;;;;;2.33;1.27;;;;;;;;;;5095205;28;20436;-74
2021/04/20 01:38:52;;;;;;;2.33;1.20;;;;;;;;;;5095153;28;20034;-74
2021/04/20 01:41:17;;;;;;;2.92;1.48;;;;;;;;;;5114499;28;20327;-74
2021/04/20 01:43:43;;;;;;;3.50;1.60;;;;;;;;;;5081041;28;20498;-74
2021/04/20 01:46:08;;;;;;;1.70;1.13;;;;;;;;;;5064720;28;20054;-74
2021/04/20 01:48:34;;;;;;;2.43;1.30;;;;;;;;;;5060998;28;20395;-74
2021/04/20 01:50:59;;;;;;;2.00;1.20;;;;;;;;;;5094548;28;20081;-74
2021/04/20 01:53:25;;;;;;;2.67;1.40;;;;;;;;;;5081238;28;20054;-74
2021/04/20 01:55:57;;;;;;;3.33;1.50;;;;;;;;;;5098205;28;20028;-74
2021/04/20 01:58:22;;;;;;;2.60;1.30;;;;;;;;;;5081146;28;20035;-74
2021/04/20 02:00:47;;;;;;;2.67;1.30;;;;;;;;;;5081039;28;20112;-74
2021/04/20 02:03:13;;;;;;;2.87;1.47;;;;;;;;;;5064252;28;20126;-74
2021/04/20 02:05:38;;;;;;;2.77;1.47;;;;;;;;;;5064267;28;20149;-74
2021/04/20 02:08:05;;;;;;;2.67;1.27;;;;;;;;;;5081153;28;20118;-74
2021/04/20 02:10:30;;;;;;;2.97;1.40;;;;;;;;;;5098025;28;20059;-74
2021/04/20 02:12:55;;;;;;;2.87;1.20;;;;;;;;;;5078894;28;20035;-74
2021/04/20 02:15:21;;;;;;;3.40;1.37;;;;;;;;;;5094599;28;20067;-75
2021/04/20 02:17:46;;;;;;;2.93;1.43;;;;;;;;;;5094559;28;20062;-74
2021/04/20 02:20:13;;;;;;;2.63;1.20;;;;;;;;;;5060699;28;20589;-74
2021/04/20 02:22:39;;;;;;;2.72;1.27;;;;;;;;;;5094314;28;20093;-74
2021/04/20 02:25:09;;;;;;;2.90;1.33;;;;;;;;;;5059754;28;20081;-74
2021/04/20 02:27:35;;;;;;;2.40;1.27;;;;;;;;;;5077503;28;20039;-74
2021/04/20 02:30:01;;;;;;;3.85;1.50;;;;;;;;;;5044515;28;20063;-74
2021/04/20 02:32:26;;;;;;;2.75;1.40;;;;;;;;;;5078728;28;20162;-74
2021/04/20 02:34:52;;;;;;;3.53;1.40;;;;;;;;;;5114469;28;20491;-74
2021/04/20 02:37:17;;;;;;;2.90;1.47;;;;;;;;;;5097124;28;20067;-74
2021/04/20 02:39:43;;;;;;;2.20;1.30;;;;;;;;;;5097256;28;20039;-74
2021/04/20 02:42:09;;;;;;;2.33;1.37;;;;;;;;;;5113332;28;20039;-74
2021/04/20 02:44:34;;;;;;;2.90;1.40;;;;;;;;;;5077013;28;20035;-74
2021/04/20 02:47:00;;;;;;;2.80;1.27;;;;;;;;;;5080432;28;20127;-74
2021/04/20 02:49:26;;;;;;;2.90;1.38;;;;;;;;;;5101628;28;20043;-74
2021/04/20 02:51:51;;;;;;;2.83;1.33;;;;;;;;;;5077209;28;20119;-74
2021/04/20 02:54:16;;;;;;;2.80;1.50;;;;;;;;;;5095259;28;20075;-74
2021/04/20 02:56:42;;;;;;;3.03;1.57;;;;;;;;;;5109960;28;20423;-74
2021/04/20 02:59:09;;;;;;;2.57;1.30;;;;;;;;;;5093691;28;20451;-74
2021/04/20 03:01:36;;;;;;;2.42;1.30;;;;;;;;;;5108002;28;20497;-74
2021/04/20 03:04:01;;;;;;;;;;;;;;;;;;5093671;28;20040;-74
2021/04/20 03:06:26;;;;;;;2.75;1.42;;;;;;;;;;5093364;28;19908;-74
2021/04/20 03:08:52;;;;;;;3.00;1.23;;;;;;;;;;5066256;23;20071;-75
2021/04/20 03:11:22;;;;;;;2.10;1.10;;;;;;;;;;5033426;28;20187;-76
2021/04/20 03:13:48;;;;;;;2.28;1.17;;;;;;;;;;5014689;28;20037;-76
2021/04/20 03:16:14;;;;;;;3.10;1.37;;;;;;;;;;5016746;28;20599;-76
2021/04/20 03:18:39;;;;;;;2.47;1.30;;;;;;;;;;5013334;28;20042;-75
2021/04/20 03:21:08;;;;;;;3.50;1.37;;;;;;;;;;5013602;28;20042;-76
2021/04/20 03:23:33;;;;;;;3.50;1.27;;;;;;;;;;4997947;28;20077;-76
2021/04/20 03:25:59;;;;;;;3.20;1.30;;;;;;;;;;4993707;28;20057;-75
2021/04/20 03:28:24;;;;;;;2.07;1.17;;;;;;;;;;5005093;28;20037;-76
2021/04/20 03:30:51;;;;;;;2.27;1.23;;;;;;;;;;5009959;28;20468;-76
2021/04/20 03:33:36;;;;;;;3.35;1.40;;;;;;;;;;5006080;28;20046;-76
2021/04/20 03:36:14;;;;;;;2.88;1.50;;;;;;;;;;5013367;28;20112;-76
2021/04/20 03:38:44;;;;;;;2.03;1.20;;;;;;;;;;4994656;28;20035;-76
2021/04/20 03:41:28;;;;;;;2.70;1.30;;;;;;;;;;5009610;28;20392;-76
2021/04/20 03:43:56;;;;;;;2.20;1.20;;;;;;;;;;4993396;28;20035;-76
2021/04/20 03:46:23;;;;;;;2.70;1.40;;;;;;;;;;4990032;28;20037;-75
2021/04/20 03:49:10;;;;;;;2.30;1.30;;;;;;;;;;5007733;28;20088;-76
2021/04/20 03:51:35;;;;;;;2.42;1.30;;;;;;;;;;5008936;28;20034;-76
2021/04/20 03:54:07;;;;;;;2.27;1.30;;;;;;;;;;4983284;28;20069;-76
2021/04/20 03:56:32;;;;;;;2.65;1.40;;;;;;;;;;4989514;28;20449;-76
2021/04/20 03:58:59;;;;;;;3.03;1.20;;;;;;;;;;4989045;28;20034;-76
2021/04/20 04:01:25;;;;;;;2.70;1.30;;;;;;;;;;5049011;23;20591;-90
2021/04/20 04:03:51;;;;;;;2.00;1.20;;;;;;;;;;5056848;28;20072;-90
2021/04/20 04:06:18;;;;;;;2.45;1.20;;;;;;;;;;5068351;28;20522;-90
2021/04/20 04:08:43;;;;;;;2.38;1.30;;;;;;;;;;5051848;28;20474;-89
2021/04/20 04:11:09;;;;;;;2.33;1.30;;;;;;;;;;5073989;28;20177;-90
2021/04/20 04:13:37;;;;;;;2.33;1.23;;;;;;;;;;5073816;28;20098;-89
2021/04/20 04:16:03;;;;;;;2.47;1.30;;;;;;;;;;5073859;28;20063;-88
2021/04/20 04:18:30;;;;;;;2.77;1.40;;;;;;;;;;5074249;28;20093;-89
2021/04/20 04:21:00;;;;;;;2.60;1.20;;;;;;;;;;5057389;28;20054;-90
2021/04/20 04:23:28;;;;;;;2.75;1.50;;;;;;;;;;5057234;28;20028;-91
2021/04/20 04:25:56;;;;;;;2.25;1.20;;;;;;;;;;5057322;28;20032;-89
2021/04/20 04:28:22;;;;;;;2.30;1.25;;;;;;;;;;5073525;28;20099;-90
2021/04/20 04:30:47;;;;;;;3.10;1.60;;;;;;;;;;5057305;28;20113;-90
2021/04/20 04:33:13;;;;;;;1.97;1.20;;;;;;;;;;5058144;28;20056;-92
2021/04/20 04:35:43;;;;;;;1.87;1.10;;;;;;;;;;5061129;28;20035;-90
2021/04/20 04:38:08;;;;;;;2.40;1.25;;;;;;;;;;5055426;28;20033;-89
2021/04/20 04:40:34;;;;;;;2.57;1.33;;;;;;;;;;5038781;28;20249;-89
2021/04/20 04:43:00;;;;;;;2.87;1.23;;;;;;;;;;5038910;28;20064;-89
2021/04/20 04:45:25;;;;;;;2.38;1.30;;;;;;;;;;5055356;28;20560;-89
2021/04/20 04:47:50;;;;;;;2.83;1.50;;;;;;;;;;5039009;28;20032;-90
2021/04/20 04:50:16;;;;;;;1.93;1.30;;;;;;;;;;5038895;28;20478;-89
2021/04/20 04:52:55;;;;;;;1.83;1.13;;;;;;;;;;5038743;28;20074;-89
2021/04/20 04:55:21;;;;;;;3.33;1.35;;;;;;;;;;5055343;28;20484;-89
2021/04/20 04:57:46;;;;;;;2.30;1.30;;;;;;;;;;5054977;28;20025;-91
2021/04/20 05:00:12;;;;;;;2.23;1.20;;;;;;;;;;5038368;28;20037;-91
2021/04/20 05:02:41;;;;;;;2.72;1.38;;;;;;;;;;5042354;28;20032;-92
2021/04/20 05:05:09;;;;;;;3.17;1.40;;;;;;;;;;5042632;28;20460;-91
2021/04/20 05:07:34;;;;;;;1.65;1.13;;;;;;;;;;5043478;28;20039;-92
2021/04/20 05:10:04;;;;;;;2.30;1.30;;;;;;;;;;5042333;28;20032;-91
2021/04/20 05:12:31;;;;;;;2.25;1.15;;;;;;;;;;5059532;28;20039;-92
2021/04/20 05:14:56;;;;;;;2.50;1.30;;;;;;;;;;5042285;28;20035;-92
2021/04/20 05:17:22;;;;;;;1.70;1.00;;;;;;;;;;5039384;28;20064;-90
2021/04/20 05:19:47;;;;;;;1.50;0.97;;;;;;;;;;5059213;28;20506;-91
2021/04/20 05:22:12;;;;;;;2.20;1.30;;;;;;;;;;5030434;28;20065;-91
2021/04/20 05:24:38;;;;;;;1.97;1.20;;;;;;;;;;5022397;28;20036;-91
2021/04/20 05:27:11;;;;;;;2.70;1.23;;;;;;;;;;5048299;28;20122;-91
2021/04/20 05:29:38;;;;;;;2.58;1.10;;;;;;;;;;5008480;28;20041;-91
2021/04/20 05:32:04;;;;;;;3.08;1.60;;;;;;;;;;5023541;28;20387;-91
2021/04/20 05:34:29;;;;;;;2.10;1.20;;;;;;;;;;5078761;28;20080;-92
2021/04/20 05:36:55;;;;;;;3.37;1.23;;;;;;;;;;5048029;28;20032;-90
2021/04/20 05:39:20;;;;;;;2.80;1.30;;;;;;;;;;5055391;28;20134;-90
2021/04/20 05:41:45;;;;;;;2.43;1.40;;;;;;;;;;5059903;28;20138;-90
2021/04/20 05:44:12;;;;;;;3.53;1.57;;;;;;;;;;5042038;28;20509;-91
2021/04/20 05:46:38;;;;;;;;;;;;;;;;;;5059045;28;20399;-90
2021/04/20 05:49:04;;;;;;;2.75;1.38;;;;;;;;;;5058215;28;20406;-90
2021/04/20 05:51:30;;;;;;;2.58;1.42;;;;;;;;;;5042402;28;20036;-90
2021/04/20 05:53:55;;;;;;;3.07;1.63;;;;;;;;;;5041741;28;20086;-91
2021/04/20 05:56:21;;;;;;;3.20;1.33;;;;;;;;;;5041507;28;20064;-90
2021/04/20 05:58:50;;;;;;;3.67;1.38;;;;;;;;;;5058070;28;20498;-90
2021/04/20 06:01:15;;;;;;;2.92;1.38;;;;;;;;;;5043583;28;20060;-90
2021/04/20 06:03:41;;;;;;;3.10;1.50;;;;;;;;;;5050306;28;20032;-91
2021/04/20 06:06:07;;;;;;;3.30;1.40;;;;;;;;;;5043535;28;20501;-90
2021/04/20 06:08:35;;;;;;;3.43;1.70;;;;;;;;;;5045243;28;20024;-90
2021/04/20 06:11:08;;;;;;;2.80;1.42;;;;;;;;;;5045211;28;20081;-92
2021/04/20 06:13:34;;;;;;;2.80;1.30;;;;;;;;;;5044476;28;20123;-92
2021/04/20 06:16:00;;;;;;;2.87;1.50;;;;;;;;;;5060189;28;20127;-92
2021/04/20 06:18:45;;;;;;;3.67;1.40;;;;;;;;;;5045215;28;20040;-92
2021/04/20 06:21:28;;;;;;;;;;;;;;;;;;;;;
2021/04/20 06:24:31;;;;;;;2.53;1.50;;;;;;;;;;5079276;28;20115;-92
2021/04/20 06:27:25;;;;;;;3.20;1.50;;;;;;;;;;5077287;28;20032;-91
2021/04/20 06:30:04;;;;;;;3.15;1.45;;;;;;;;;;5078490;28;20065;-92
2021/04/20 06:32:43;;;;;;;3.35;1.50;;;;;;;;;;5077087;28;20043;-92
2021/04/20 06:35:22;;;;;;;3.05;1.73;;;;;;;;;;5065043;28;20032;-92
2021/04/20 06:40:53;;;;;;;4.28;1.60;;;;;;;;;;5070818;28;20041;-92
2021/04/20 06:43:41;;;;;;;3.65;1.58;;;;;;;;;;5025933;28;20107;-92
2021/04/20 06:46:30;;;;;;;3.17;1.55;;;;;;;;;;5042627;28;20068;-92
2021/04/20 06:48:59;;;;;;;3.92;1.67;;;;;;;;;;5028716;28;20029;-92
2021/04/20 06:51:36;;;;;;;3.20;1.60;;;;;;;;;;5032053;28;20039;-92
2021/04/20 06:54:29;;;;;;;3.45;1.70;;;;;;;;;;5040626;28;20143;-92
2021/04/20 06:57:14;;;;;;;2.70;1.42;;;;;;;;;;5042356;28;20139;-92
2021/04/20 06:59:54;;;;;;;3.60;1.85;;;;;;;;;;5028023;28;20072;-92
2021/04/20 07:02:45;;;;;;;3.63;1.70;;;;;;;;;;5058757;28;20040;-93
2021/04/20 07:05:11;;;;;;;3.85;1.48;;;;;;;;;;5058079;28;20033;-92
2021/04/20 07:08:01;;;;;;;3.83;1.70;;;;;;;;;;5042460;28;20085;-91
2021/04/20 07:10:37;;;;;;;3.15;1.50;;;;;;;;;;5059275;28;20040;-92
2021/04/20 07:13:07;;;;;;;2.78;1.60;;;;;;;;;;5044023;28;20028;-92
2021/04/20 07:15:35;;;;;;;3.75;1.50;;;;;;;;;;5047819;28;20039;-92
2021/04/20 07:18:12;;;;;;;4.15;1.70;;;;;;;;;;5049749;28;20091;-90
2021/04/20 07:20:46;;;;;;;3.80;1.55;;;;;;;;;;5073211;28;20043;-92
2021/04/20 07:23:32;;;;;;;3.05;1.50;;;;;;;;;;5056704;28;20123;-92
2021/04/20 07:26:15;;;;;;;3.60;1.73;;;;;;;;;;5073116;28;20131;-92
2021/04/20 07:28:57;;;;;;;3.40;1.48;;;;;;;;;;5089912;28;20038;-89
2021/04/20 07:32:03;;;;;;;4.10;1.80;;;;;;;;;;5055367;28;20448;-91
2021/04/20 07:34:35;;;;;;;3.28;1.73;;;;;;;;;;5023197;28;20044;-91
2021/04/20 07:37:00;;;;;;;3.28;1.50;;;;;;;;;;5073651;28;20067;-92
2021/04/20 07:39:34;;;;;;;3.43;1.63;;;;;;;;;;5055339;28;20064;-92
2021/04/20 07:42:02;;;;;;;3.25;1.65;;;;;;;;;;5027396;28;20028;-92
2021/04/20 07:44:50;;;;;;;4.10;1.40;;;;;;;;;;5040094;28;20037;-91
2021/04/20 07:47:15;;;;;;;3.45;1.75;;;;;;;;;;5040471;28;20040;-92
2021/04/20 07:49:46;;;;;;;2.93;1.43;;;;;;;;;;5039499;28;20593;-91
2021/04/20 07:52:14;;;;;;;3.00;1.70;;;;;;;;;;5072807;28;20064;-91
2021/04/20 07:55:09;;;;;;;2.83;1.50;;;;;;;;;;5039615;28;20559;-92
2021/04/20 07:57:46;;;;;;;3.17;1.50;;;;;;;;;;5055331;28;20043;-92
2021/04/20 08:00:13;;;;;;;3.65;1.70;;;;;;;;;;5039250;28;20433;-92
2021/04/20 08:02:50;;;;;;;3.70;1.83;;;;;;;;;;5055913;28;20032;-91
2021/04/20 08:05:29;;;;;;;4.15;1.65;;;;;;;;;;5039360;28;20130;-92
2021/04/20 08:07:54;;;;;;;3.42;1.73;;;;;;;;;;5056071;28;20067;-92
2021/04/20 08:10:24;;;;;;;3.73;1.50;;;;;;;;;;5055838;28;20055;-92
2021/04/20 08:12:54;;;;;;;5.03;1.75;;;;;;;;;;5035674;28;20578;-92
2021/04/20 08:15:27;;;;;;;3.70;1.52;;;;;;;;;;5052318;28;20043;-92
2021/04/20 08:18:18;;;;;;;3.65;1.70;;;;;;;;;;5013845;28;20029;-91
2021/04/20 08:20:44;;;;;;;3.72;1.63;;;;;;;;;;5052323;28;20040;-92
2021/04/20 08:23:09;;;;;;;2.83;1.33;;;;;;;;;;5019723;28;20025;-92
2021/04/20 08:25:41;;;;;;;4.13;1.80;;;;;;;;;;5019201;28;20043;-91
2021/04/20 08:28:35;;;;;;;3.10;1.70;;;;;;;;;;5036537;28;20043;-92
2021/04/20 08:31:17;;;;;;;3.75;1.77;;;;;;;;;;5092458;28;20052;-91
2021/04/20 08:33:43;;;;;;;3.38;1.45;;;;;;;;;;5075594;28;20055;-92
2021/04/20 08:36:18;;;;;;;3.38;1.70;;;;;;;;;;5058211;28;20056;-92
2021/04/20 08:38:57;;;;;;;4.53;1.60;;;;;;;;;;5058781;28;20024;-92
2021/04/20 08:41:32;;;;;;;3.35;1.70;;;;;;;;;;5077472;28;20039;-92
2021/04/20 08:44:14;;;;;;;4.43;1.85;;;;;;;;;;5045463;28;20085;-90
2021/04/20 08:46:54;;;;;;;4.32;1.80;;;;;;;;;;5044948;28;20033;-92
2021/04/20 08:49:50;;;;;;;3.38;1.70;;;;;;;;;;5057072;28;20038;-92
2021/04/20 08:52:38;;;;;;;4.05;1.73;;;;;;;;;;5056760;28;20037;-92
2021/04/20 08:55:13;;;;;;;4.30;1.80;;;;;;;;;;5041361;28;20071;-92
2021/04/20 08:58:00;;;;;;;3.63;1.70;;;;;;;;;;5036925;28;20025;-92
2021/04/20 09:00:40;;;;;;;3.27;1.50;;;;;;;;;;5051962;28;20499;-89
2021/04/20 09:03:17;;;;;;;3.42;1.70;;;;;;;;;;5018814;28;20087;-89
2021/04/20 09:06:04;;;;;;;3.72;1.58;;;;;;;;;;5053576;28;20115;-89
2021/04/20 09:08:49;;;;;;;4.17;1.87;;;;;;;;;;5060666;28;20023;-89
2021/04/20 09:11:19;;;;;;;3.20;1.52;;;;;;;;;;5059399;28;20385;-89
2021/04/20 09:13:59;;;;;;;3.35;1.45;;;;;;;;;;5056192;28;20043;-88
2021/04/20 09:16:50;;;;;;;3.42;1.85;;;;;;;;;;5077215;28;20032;-88
2021/04/20 09:19:43;;;;;;;3.75;1.60;;;;;;;;;;5044988;28;20036;-89
2021/04/20 09:22:51;;;;;;;3.40;1.70;;;;;;;;;;5057278;28;20068;-89
2021/04/20 09:25:35;;;;;;;3.78;1.77;;;;;;;;;;5055550;28;20087;-89
2021/04/20 09:28:15;;;;;;;3.05;1.60;;;;;;;;;;5055429;28;20029;-89
2021/04/20 09:30:55;;;;;;;4.32;1.73;;;;;;;;;;5054996;28;20036;-89
2021/04/20 09:33:26;;;;;;;4.35;1.52;;;;;;;;;;5062069;28;20093;-89
2021/04/20 09:35:51;;;;;;;2.45;1.30;;;;;;;;;;5078847;28;20066;-89
2021/04/20 09:38:17;;;;;;;4.20;1.77;;;;;;;;;;5077291;28;20028;-90
2021/04/20 09:40:42;;;;;;;4.07;1.90;;;;;;;;;;5073065;28;20041;-89
2021/04/20 09:43:18;;;;;;;3.80;1.60;;;;;;;;;;5055937;28;20067;-89
2021/04/20 09:45:46;;;;;;;3.50;1.50;;;;;;;;;;5063147;28;20433;-89
2021/04/20 09:48:38;;;;;;;3.92;1.63;;;;;;;;;;5071082;28;20040;-89
2021/04/20 09:51:21;;;;;;;3.33;1.60;;;;;;;;;;5012619;28;20029;-89
2021/04/20 09:53:56;;;;;;;3.08;1.55;;;;;;;;;;5053323;28;20043;-89
2021/04/20 09:56:33;;;;;;;3.78;1.70;;;;;;;;;;5076298;28;20123;-89
2021/04/20 09:58:58;;;;;;;2.97;1.50;;;;;;;;;;5062825;28;20376;-89
2021/04/20 10:01:42;;;;;;;4.07;1.80;;;;;;;;;;5048704;28;20056;-89
2021/04/20 10:04:09;;;;;;;3.08;1.60;;;;;;;;;;5063271;28;20165;-89
2021/04/20 10:07:09;;;;;;;3.28;1.73;;;;;;;;;;5071741;28;20036;-89
2021/04/20 10:09:58;;;;;;;3.35;1.60;;;;;;;;;;5063345;28;20036;-89
2021/04/20 10:12:36;;;;;;;4.07;1.83;;;;;;;;;;5072509;28;20028;-90
2021/04/20 10:15:08;;;;;;;3.33;1.70;;;;;;;;;;5084034;28;20483;-90
2021/04/20 10:18:11;;;;;;;3.85;1.60;;;;;;;;;;5073726;28;20036;-90
2021/04/20 10:21:01;;;;;;;3.78;1.67;;;;;;;;;;5011205;28;20045;-89
2021/04/20 10:23:42;;;;;;;3.80;1.77;;;;;;;;;;5071799;28;20408;-89
2021/04/20 10:26:14;;;;;;;3.92;1.77;;;;;;;;;;5081390;28;20040;-90
2021/04/20 10:29:05;;;;;;;3.25;1.70;;;;;;;;;;5081784;28;20039;-88
2021/04/20 10:31:34;;;;;;;3.42;1.83;;;;;;;;;;5061191;28;20056;-89
2021/04/20 10:34:00;;;;;;;4.00;1.70;;;;;;;;;;5066641;28;20063;-89
2021/04/20 10:36:29;;;;;;;2.90;1.47;;;;;;;;;;5058154;28;20042;-89
2021/04/20 10:38:56;;;;;;;3.40;1.73;;;;;;;;;;5041722;28;20070;-89
2021/04/20 10:41:30;;;;;;;3.20;1.60;;;;;;;;;;5057609;28;20495;-88
2021/04/20 10:43:55;;;;;;;5.32;2.05;;;;;;;;;;5040676;28;20047;-88
2021/04/20 10:46:25;;;;;;;3.73;1.70;;;;;;;;;;5040780;28;20032;-89
2021/04/20 10:48:54;;;;;;;3.17;1.70;;;;;;;;;;5058295;28;20060;-89
2021/04/20 10:51:31;;;;;;;3.08;1.55;;;;;;;;;;5059856;28;20119;-89
2021/04/20 10:53:56;;;;;;;3.72;1.65;;;;;;;;;;5053386;28;20058;-88
2021/04/20 10:56:22;;;;;;;3.30;1.70;;;;;;;;;;5040670;28;20044;-89
2021/04/20 10:58:49;;;;;;;4.23;1.90;;;;;;;;;;5042165;28;20052;-89
2021/04/20 11:01:15;;;;;;;3.10;1.65;;;;;;;;;;5060482;28;20032;-89
2021/04/20 11:03:40;;;;;;;3.65;1.90;;;;;;;;;;5049907;28;20039;-89
2021/04/20 11:06:06;;;;;;;4.50;2.17;;;;;;;;;;5057008;28;20080;-89
2021/04/20 11:08:38;;;;;;;3.80;1.70;;;;;;;;;;5073764;28;20051;-89
2021/04/20 11:11:04;;;;;;;3.05;1.60;;;;;;;;;;5056486;28;20032;-89
2021/04/20 11:13:36;;;;;;;3.60;1.57;;;;;;;;;;5047658;28;20475;-89
2021/04/20 11:16:04;;;;;;;3.47;1.80;;;;;;;;;;5060034;28;20185;-89
2021/04/20 11:18:29;;;;;;;3.47;1.90;;;;;;;;;;5072757;28;20039;-89
2021/04/20 11:20:54;;;;;;;4.50;1.80;;;;;;;;;;5047897;28;20048;-89
2021/04/20 11:23:24;;;;;;;3.63;1.73;;;;;;;;;;5036479;28;20123;-89
2021/04/20 11:25:49;;;;;;;3.63;1.83;;;;;;;;;;5036433;28;20043;-89
2021/04/20 11:28:34;;;;;;;3.23;1.63;;;;;;;;;;5053523;28;20041;-89
2021/04/20 11:31:03;;;;;;;4.68;2.00;;;;;;;;;;5064616;28;20039;-89
2021/04/20 11:33:43;;;;;;;4.07;1.80;;;;;;;;;;5042503;28;20036;-89
2021/04/20 11:36:16;;;;;;;3.67;1.83;;;;;;;;;;5053205;28;20036;-88
2021/04/20 11:38:46;;;;;;;3.08;1.60;;;;;;;;;;5052894;28;20514;-88
2021/04/20 11:41:12;;;;;;;3.58;1.85;;;;;;;;;;5060321;28;20047;-89
2021/04/20 11:43:37;;;;;;;3.30;1.73;;;;;;;;;;5072669;28;20461;-89
2021/04/20 11:46:03;;;;;;;4.47;1.73;;;;;;;;;;5073133;28;20019;-89
2021/04/20 11:48:31;;;;;;;3.53;2.00;;;;;;;;;;5053847;28;20087;-91
2021/04/20 11:51:01;;;;;;;3.60;1.80;;;;;;;;;;5055776;28;20040;-91
2021/04/20 11:53:27;;;;;;;3.35;1.73;;;;;;;;;;5073159;28;20036;-90
2021/04/20 11:55:58;;;;;;;3.15;1.67;;;;;;;;;;5036897;28;20033;-90
2021/04/20 11:58:30;;;;;;;4.65;1.80;;;;;;;;;;5036409;28;20120;-90
2021/04/20 12:01:01;;;;;;;3.80;1.90;;;;;;;;;;5052652;28;20537;-90
2021/04/20 12:03:28;;;;;;;3.00;1.70;;;;;;;;;;5036771;28;20133;-87
2021/04/20 12:05:55;;;;;;;3.65;1.80;;;;;;;;;;5043743;28;20051;-90
2021/04/20 12:08:25;;;;;;;4.03;1.90;;;;;;;;;;5048732;28;20494;-89
2021/04/20 12:10:51;;;;;;;3.40;1.77;;;;;;;;;;5055144;28;20031;-90
2021/04/20 12:13:24;;;;;;;3.95;2.00;;;;;;;;;;5056002;28;20066;-89
2021/04/20 12:15:55;;;;;;;3.45;1.73;;;;;;;;;;5055461;28;20031;-89
2021/04/20 12:18:20;;;;;;;3.63;1.70;;;;;;;;;;5033674;28;20028;-90
2021/04/20 12:20:47;;;;;;;3.40;1.80;;;;;;;;;;5053699;28;20041;-89
2021/04/20 12:23:14;;;;;;;4.22;1.80;;;;;;;;;;5071543;28;20032;-89
2021/04/20 12:25:39;;;;;;;;;;;;;;;;;;5036979;28;20498;-89
2021/04/20 12:28:05;;;;;;;3.20;1.53;;;;;;;;;;5066926;28;19926;-90
2021/04/20 12:30:30;;;;;;;4.03;1.90;;;;;;;;;;5047239;28;20082;-89
2021/04/20 12:32:56;;;;;;;3.33;1.97;;;;;;;;;;5054451;28;20127;-89
2021/04/20 12:35:25;;;;;;;3.80;2.00;;;;;;;;;;5074037;28;20531;-89
2021/04/20 12:37:54;;;;;;;3.45;1.70;;;;;;;;;;5069998;28;20081;-89
2021/04/20 12:40:19;;;;;;;3.40;2.08;;;;;;;;;;5036102;28;20036;-89
2021/04/20 12:42:49;;;;;;;3.73;1.90;;;;;;;;;;5069349;28;20061;-89
2021/04/20 12:45:18;;;;;;;4.80;2.10;;;;;;;;;;5055100;28;20074;-89
2021/04/20 12:47:43;;;;;;;3.72;1.98;;;;;;;;;;5054300;28;20028;-88
2021/04/20 12:50:11;;;;;;;3.40;1.63;;;;;;;;;;5035199;28;20074;-89
2021/04/20 12:52:39;;;;;;;4.28;2.10;;;;;;;;;;5050069;28;20527;-89
2021/04/20 12:55:06;;;;;;;4.45;1.90;;;;;;;;;;5047483;28;20518;-89
2021/04/20 12:57:40;;;;;;;3.30;1.73;;;;;;;;;;5036196;28;20040;-89
2021/04/20 13:00:16;;;;;;;3.83;2.03;;;;;;;;;;5035142;28;20048;-89
2021/04/20 13:02:44;;;;;;;3.63;2.10;;;;;;;;;;5035885;28;20037;-89
2021/04/20 13:05:10;;;;;;;3.55;1.92;;;;;;;;;;5036491;28;20032;-89
2021/04/20 13:07:36;;;;;;;3.87;2.20;;;;;;;;;;5041134;28;20106;-88
2021/04/20 13:12:29;;;;;;;4.95;2.20;;;;;;;;;;5098736;28;20039;-77
2021/04/20 13:14:57;;;;;;;4.63;2.20;;;;;;;;;;5041348;28;20032;-77
2021/04/20 13:17:23;;;;;;;3.65;2.10;;;;;;;;;;5041477;28;20056;-77
2021/04/20 13:19:49;;;;;;;4.35;1.90;;;;;;;;;;5062152;28;20077;-77
2021/04/20 13:22:15;;;;;;;3.90;2.05;;;;;;;;;;5072717;28;20030;-77
2021/04/20 13:24:40;;;;;;;4.30;2.07;;;;;;;;;;5045262;28;20032;-77
2021/04/20 13:27:05;;;;;;;4.03;2.17;;;;;;;;;;5054907;28;20126;-77
2021/04/20 13:29:31;;;;;;;4.30;2.30;;;;;;;;;;5065097;28;20176;-77
2021/04/20 13:32:06;;;;;;;4.70;2.27;;;;;;;;;;5082233;28;20093;-78
2021/04/20 13:34:40;;;;;;;4.35;2.15;;;;;;;;;;5081313;28;20285;-77
2021/04/20 13:37:19;;;;;;;3.95;2.10;;;;;;;;;;5065270;28;20035;-77
2021/04/20 13:39:46;;;;;;;4.32;1.95;;;;;;;;;;5078334;28;20036;-78
2021/04/20 13:42:12;;;;;;;;;;;;;;;;;;5065691;28;20063;-78
2021/04/20 13:45:06;;;;;;;4.10;2.00;;;;;;;;;;5089391;28;19916;-77
2021/04/20 13:47:34;;;;;;;4.40;2.20;;;;;;;;;;5063472;28;20026;-77
2021/04/20 13:49:59;;;;;;;3.63;2.08;;;;;;;;;;5080645;28;20113;-77
2021/04/20 13:52:30;;;;;;;4.07;2.10;;;;;;;;;;5079884;28;20131;-76
2021/04/20 13:55:23;;;;;;;5.55;2.30;;;;;;;;;;5081618;28;20028;-77
2021/04/20 13:57:51;;;;;;;4.80;2.08;;;;;;;;;;5093916;28;20127;-78
2021/04/20 14:00:17;;;;;;;4.57;2.30;;;;;;;;;;5077757;28;20047;-78
2021/04/20 14:02:52;;;;;;;3.40;2.13;;;;;;;;;;5053314;28;20036;-77
2021/04/20 14:05:18;;;;;;;5.85;2.20;;;;;;;;;;5046970;28;20514;-77
2021/04/20 14:07:44;;;;;;;4.20;2.43;;;;;;;;;;5076995;28;20032;-77
2021/04/20 14:10:11;;;;;;;4.60;2.17;;;;;;;;;;5058718;28;20501;-77
2021/04/20 14:12:44;;;;;;;4.22;2.00;;;;;;;;;;5083704;28;20044;-77
2021/04/20 14:15:11;;;;;;;3.33;2.10;;;;;;;;;;5077608;28;20067;-77
2021/04/20 14:17:37;;;;;;;;;;;;;;;;;;5079324;28;20483;-77
2021/04/20 14:20:04;;;;;;;3.70;1.95;;;;;;;;;;5090688;28;19919;-77
2021/04/20 14:22:29;;;;;;;5.50;2.65;;;;;;;;;;5050453;28;20036;-77
2021/04/20 14:25:00;;;;;;;5.67;2.40;;;;;;;;;;5044188;28;20066;-77
2021/04/20 14:27:30;;;;;;;4.20;2.17;;;;;;;;;;5044630;28;20368;-76
2021/04/20 14:29:56;;;;;;;5.00;2.25;;;;;;;;;;5044964;28;20032;-77
2021/04/20 14:32:21;;;;;;;3.83;2.20;;;;;;;;;;5060756;28;20101;-77
2021/04/20 14:34:53;;;;;;;4.33;2.30;;;;;;;;;;5059935;28;20169;-77
2021/04/20 14:37:19;;;;;;;4.55;2.13;;;;;;;;;;5060812;28;20115;-77
2021/04/20 14:39:44;;;;;;;5.13;2.42;;;;;;;;;;5077288;28;20063;-76
2021/04/20 14:42:10;;;;;;;3.97;2.07;;;;;;;;;;5043783;28;20067;-77
2021/04/20 14:44:38;;;;;;;4.30;2.40;;;;;;;;;;5061042;28;20024;-77
2021/04/20 14:47:08;;;;;;;5.18;2.30;;;;;;;;;;5077223;28;20040;-77
2021/04/20 14:49:33;;;;;;;5.45;2.10;;;;;;;;;;5061121;28;20020;-77
2021/04/20 14:52:05;;;;;;;5.17;2.50;;;;;;;;;;5060324;28;20482;-77
2021/04/20 14:54:38;;;;;;;5.97;2.42;;;;;;;;;;5060417;28;20501;-77
2021/04/20 14:57:04;;;;;;;4.72;2.10;;;;;;;;;;5043604;28;20486;-76
2021/04/20 14:59:30;;;;;;;5.13;2.20;;;;;;;;;;5060716;28;20491;-77
2021/04/20 15:01:58;;;;;;;4.38;2.30;;;;;;;;;;5060274;28;20036;-76
2021/04/20 15:04:25;;;;;;;4.82;2.38;;;;;;;;;;5043824;28;20089;-76
2021/04/20 15:07:19;;;;;;;4.90;2.28;;;;;;;;;;5060295;28;20040;-77
2021/04/20 15:09:47;;;;;;;5.32;2.20;;;;;;;;;;5074389;28;20032;-77
2021/04/20 15:12:16;;;;;;;4.45;2.38;;;;;;;;;;5043423;28;20036;-77